sensor_id;sensor_type;location;lat;lon;timestamp;P1;durP1;ratioP1;P2;durP2;ratioP2
16800;SDS011;8518;53.236;10.384;2023-08-17T00:00:34;6.50;;;2.00;;
16800;SDS011;8518;53.236;10.384;2023-08-17T00:02:59;4.45;;;1.23;;
16800;SDS011;8518;53.236;10.384;2023-08-17T00:05:25;4.93;;;1.33;;
16800;SDS011;8518;53.236;10.384;2023-08-17T00:07:51;4.13;;;1.30;;
16800;SDS011;8518;53.236;10.384;2023-08-17T00:10:17;4.10;;;1.63;;
16800;SDS011;8518;53.236;10.384;2023-08-17T00:12:42;4.85;;;1.33;;
16800;SDS011;8518;53.236;10.384;2023-08-17T00:15:08;3.30;;;1.30;;
16800;SDS011;8518;53.236;10.384;2023-08-17T00:20:56;5.88;;;1.33;;
16800;SDS011;8518;53.236;10.384;2023-08-17T00:26:44;6.20;;;1.60;;
16800;SDS011;8518;53.236;10.384;2023-08-17T00:29:09;3.90;;;1.08;;
16800;SDS011;8518;53.236;10.384;2023-08-17T00:31:35;3.03;;;1.40;;
16800;SDS011;8518;53.236;10.384;2023-08-17T00:34:01;3.45;;;1.15;;
16800;SDS011;8518;53.236;10.384;2023-08-17T00:39:49;8.05;;;1.52;;
16800;SDS011;8518;53.236;10.384;2023-08-17T00:42:14;3.67;;;1.48;;
16800;SDS011;8518;53.236;10.384;2023-08-17T00:44:40;4.75;;;1.80;;
16800;SDS011;8518;53.236;10.384;2023-08-17T00:50:28;4.45;;;1.50;;
16800;SDS011;8518;53.236;10.384;2023-08-17T00:52:54;4.10;;;1.50;;
16800;SDS011;8518;53.236;10.384;2023-08-17T00:55:21;4.00;;;1.70;;
16800;SDS011;8518;53.236;10.384;2023-08-17T00:57:49;4.35;;;1.83;;
16800;SDS011;8518;53.236;10.384;2023-08-17T01:00:16;3.08;;;1.35;;
16800;SDS011;8518;53.236;10.384;2023-08-17T01:02:42;4.22;;;1.40;;
16800;SDS011;8518;53.236;10.384;2023-08-17T01:05:09;15.32;;;2.15;;
16800;SDS011;8518;53.236;10.384;2023-08-17T01:14:02;4.22;;;1.48;;
16800;SDS011;8518;53.236;10.384;2023-08-17T01:19:53;7.55;;;1.58;;
16800;SDS011;8518;53.236;10.384;2023-08-17T01:22:20;6.53;;;1.58;;
16800;SDS011;8518;53.236;10.384;2023-08-17T01:24:47;2.13;;;1.35;;
16800;SDS011;8518;53.236;10.384;2023-08-17T01:30:42;5.05;;;1.25;;
16800;SDS011;8518;53.236;10.384;2023-08-17T01:33:17;3.28;;;1.27;;
16800;SDS011;8518;53.236;10.384;2023-08-17T01:39:15;4.60;;;1.00;;
16800;SDS011;8518;53.236;10.384;2023-08-17T01:41:42;2.78;;;1.00;;
16800;SDS011;8518;53.236;10.384;2023-08-17T01:44:11;4.15;;;1.27;;
16800;SDS011;8518;53.236;10.384;2023-08-17T01:50:00;3.45;;;1.23;;
16800;SDS011;8518;53.236;10.384;2023-08-17T01:52:26;4.43;;;0.90;;
16800;SDS011;8518;53.236;10.384;2023-08-17T01:54:53;3.47;;;1.15;;
16800;SDS011;8518;53.236;10.384;2023-08-17T02:00:41;4.13;;;1.13;;
16800;SDS011;8518;53.236;10.384;2023-08-17T02:06:29;4.03;;;1.63;;
16800;SDS011;8518;53.236;10.384;2023-08-17T02:08:55;4.50;;;1.20;;
16800;SDS011;8518;53.236;10.384;2023-08-17T02:11:20;3.90;;;1.30;;
16800;SDS011;8518;53.236;10.384;2023-08-17T02:13:46;5.35;;;1.30;;
16800;SDS011;8518;53.236;10.384;2023-08-17T02:19:33;5.15;;;1.30;;
16800;SDS011;8518;53.236;10.384;2023-08-17T02:21:59;3.25;;;1.48;;
16800;SDS011;8518;53.236;10.384;2023-08-17T02:24:25;4.50;;;1.40;;
16800;SDS011;8518;53.236;10.384;2023-08-17T02:30:13;2.15;;;1.20;;
16800;SDS011;8518;53.236;10.384;2023-08-17T02:32:38;3.42;;;1.70;;
16800;SDS011;8518;53.236;10.384;2023-08-17T02:35:04;5.65;;;1.75;;
16800;SDS011;8518;53.236;10.384;2023-08-17T02:40:52;3.78;;;1.60;;
16800;SDS011;8518;53.236;10.384;2023-08-17T02:43:18;5.38;;;1.75;;
16800;SDS011;8518;53.236;10.384;2023-08-17T02:49:05;5.47;;;1.55;;
16800;SDS011;8518;53.236;10.384;2023-08-17T02:51:31;3.08;;;1.90;;
16800;SDS011;8518;53.236;10.384;2023-08-17T02:53:57;5.53;;;1.50;;
16800;SDS011;8518;53.236;10.384;2023-08-17T02:59:44;3.20;;;1.38;;
16800;SDS011;8518;53.236;10.384;2023-08-17T03:02:10;3.25;;;1.40;;
16800;SDS011;8518;53.236;10.384;2023-08-17T03:04:35;3.67;;;1.20;;
16800;SDS011;8518;53.236;10.384;2023-08-17T03:10:23;4.25;;;1.40;;
16800;SDS011;8518;53.236;10.384;2023-08-17T03:12:50;2.22;;;1.20;;
16800;SDS011;8518;53.236;10.384;2023-08-17T03:15:16;1.80;;;1.00;;
16800;SDS011;8518;53.236;10.384;2023-08-17T03:17:41;6.45;;;1.50;;
16800;SDS011;8518;53.236;10.384;2023-08-17T03:20:08;3.53;;;1.58;;
16800;SDS011;8518;53.236;10.384;2023-08-17T03:22:34;5.10;;;1.60;;
16800;SDS011;8518;53.236;10.384;2023-08-17T03:25:00;3.75;;;1.40;;
16800;SDS011;8518;53.236;10.384;2023-08-17T03:30:48;5.15;;;1.63;;
16800;SDS011;8518;53.236;10.384;2023-08-17T03:33:13;5.00;;;1.65;;
16800;SDS011;8518;53.236;10.384;2023-08-17T03:39:01;5.53;;;1.80;;
16800;SDS011;8518;53.236;10.384;2023-08-17T03:41:26;4.97;;;1.83;;
16800;SDS011;8518;53.236;10.384;2023-08-17T03:43:52;3.70;;;1.77;;
16800;SDS011;8518;53.236;10.384;2023-08-17T03:49:39;4.55;;;1.65;;
16800;SDS011;8518;53.236;10.384;2023-08-17T03:52:05;4.97;;;1.65;;
16800;SDS011;8518;53.236;10.384;2023-08-17T03:54:31;3.65;;;1.65;;
16800;SDS011;8518;53.236;10.384;2023-08-17T04:00:25;4.32;;;1.70;;
16800;SDS011;8518;53.236;10.384;2023-08-17T04:02:50;3.45;;;1.58;;
16800;SDS011;8518;53.236;10.384;2023-08-17T04:05:16;7.50;;;1.48;;
16800;SDS011;8518;53.236;10.384;2023-08-17T04:07:42;5.65;;;2.00;;
16800;SDS011;8518;53.236;10.384;2023-08-17T04:10:08;4.63;;;2.00;;
16800;SDS011;8518;53.236;10.384;2023-08-17T04:12:34;3.15;;;1.70;;
16800;SDS011;8518;53.236;10.384;2023-08-17T04:14:59;6.13;;;2.03;;
16800;SDS011;8518;53.236;10.384;2023-08-17T04:20:47;4.25;;;1.98;;
16800;SDS011;8518;53.236;10.384;2023-08-17T04:23:13;3.72;;;2.05;;
16800;SDS011;8518;53.236;10.384;2023-08-17T04:29:01;6.70;;;2.08;;
16800;SDS011;8518;53.236;10.384;2023-08-17T04:31:26;4.95;;;2.08;;
16800;SDS011;8518;53.236;10.384;2023-08-17T04:33:52;4.28;;;2.35;;
16800;SDS011;8518;53.236;10.384;2023-08-17T04:39:40;3.78;;;2.17;;
16800;SDS011;8518;53.236;10.384;2023-08-17T04:42:08;4.53;;;2.47;;
16800;SDS011;8518;53.236;10.384;2023-08-17T04:44:34;6.07;;;2.40;;
16800;SDS011;8518;53.236;10.384;2023-08-17T04:50:22;3.63;;;2.50;;
16800;SDS011;8518;53.236;10.384;2023-08-17T04:52:47;4.20;;;2.78;;
16800;SDS011;8518;53.236;10.384;2023-08-17T04:55:13;5.85;;;2.78;;
16800;SDS011;8518;53.236;10.384;2023-08-17T04:57:39;4.57;;;2.55;;
16800;SDS011;8518;53.236;10.384;2023-08-17T05:00:05;8.73;;;2.70;;
16800;SDS011;8518;53.236;10.384;2023-08-17T05:02:34;4.88;;;2.50;;
16800;SDS011;8518;53.236;10.384;2023-08-17T05:05:02;6.50;;;2.67;;
16800;SDS011;8518;53.236;10.384;2023-08-17T05:10:53;6.23;;;2.10;;
16800;SDS011;8518;53.236;10.384;2023-08-17T05:16:41;3.83;;;1.93;;
16800;SDS011;8518;53.236;10.384;2023-08-17T05:19:07;4.37;;;2.40;;
16800;SDS011;8518;53.236;10.384;2023-08-17T05:21:34;7.13;;;2.50;;
16800;SDS011;8518;53.236;10.384;2023-08-17T05:24:00;5.20;;;2.43;;
16800;SDS011;8518;53.236;10.384;2023-08-17T05:29:47;5.60;;;2.60;;
16800;SDS011;8518;53.236;10.384;2023-08-17T05:32:13;5.23;;;2.37;;
16800;SDS011;8518;53.236;10.384;2023-08-17T05:34:38;4.90;;;2.67;;
16800;SDS011;8518;53.236;10.384;2023-08-17T05:40:26;3.93;;;2.73;;
16800;SDS011;8518;53.236;10.384;2023-08-17T05:42:51;5.33;;;2.63;;
16800;SDS011;8518;53.236;10.384;2023-08-17T05:45:17;4.77;;;2.60;;
16800;SDS011;8518;53.236;10.384;2023-08-17T05:47:42;5.33;;;2.77;;
16800;SDS011;8518;53.236;10.384;2023-08-17T05:50:10;5.47;;;2.93;;
16800;SDS011;8518;53.236;10.384;2023-08-17T05:52:35;3.57;;;2.90;;
16800;SDS011;8518;53.236;10.384;2023-08-17T05:55:01;4.80;;;3.07;;
16800;SDS011;8518;53.236;10.384;2023-08-17T06:00:49;6.27;;;3.60;;
16800;SDS011;8518;53.236;10.384;2023-08-17T06:03:14;6.40;;;3.00;;
16800;SDS011;8518;53.236;10.384;2023-08-17T06:09:02;5.53;;;2.20;;
16800;SDS011;8518;53.236;10.384;2023-08-17T06:11:29;3.77;;;2.37;;
16800;SDS011;8518;53.236;10.384;2023-08-17T06:13:54;2.90;;;1.73;;
16800;SDS011;8518;53.236;10.384;2023-08-17T06:19:42;2.90;;;1.30;;
16800;SDS011;8518;53.236;10.384;2023-08-17T06:22:08;3.10;;;1.37;;
16800;SDS011;8518;53.236;10.384;2023-08-17T06:24:33;3.30;;;1.50;;
16800;SDS011;8518;53.236;10.384;2023-08-17T06:30:21;2.67;;;1.40;;
16800;SDS011;8518;53.236;10.384;2023-08-17T06:36:09;3.00;;;1.43;;
16800;SDS011;8518;53.236;10.384;2023-08-17T06:38:38;1.70;;;1.20;;
16800;SDS011;8518;53.236;10.384;2023-08-17T06:41:03;1.93;;;1.00;;
16800;SDS011;8518;53.236;10.384;2023-08-17T06:43:29;2.03;;;1.13;;
16800;SDS011;8518;53.236;10.384;2023-08-17T06:49:16;3.00;;;1.40;;
16800;SDS011;8518;53.236;10.384;2023-08-17T06:51:42;3.67;;;1.70;;
16800;SDS011;8518;53.236;10.384;2023-08-17T06:54:08;2.00;;;1.50;;
16800;SDS011;8518;53.236;10.384;2023-08-17T06:59:56;1.87;;;1.17;;
16800;SDS011;8518;53.236;10.384;2023-08-17T07:05:44;1.93;;;1.00;;
16800;SDS011;8518;53.236;10.384;2023-08-17T07:08:10;2.37;;;1.20;;
16800;SDS011;8518;53.236;10.384;2023-08-17T07:10:35;2.00;;;1.00;;
16800;SDS011;8518;53.236;10.384;2023-08-17T07:13:01;1.30;;;0.90;;
16800;SDS011;8518;53.236;10.384;2023-08-17T07:15:28;4.00;;;1.40;;
16800;SDS011;8518;53.236;10.384;2023-08-17T07:17:55;1.40;;;1.20;;
16800;SDS011;8518;53.236;10.384;2023-08-17T07:20:21;1.87;;;1.00;;
16800;SDS011;8518;53.236;10.384;2023-08-17T07:22:47;2.10;;;1.07;;
16800;SDS011;8518;53.236;10.384;2023-08-17T07:25:12;2.17;;;1.00;;
16800;SDS011;8518;53.236;10.384;2023-08-17T07:27:38;3.03;;;1.30;;
16800;SDS011;8518;53.236;10.384;2023-08-17T07:30:04;3.37;;;1.13;;
16800;SDS011;8518;53.236;10.384;2023-08-17T07:32:30;1.87;;;0.93;;
16800;SDS011;8518;53.236;10.384;2023-08-17T07:34:55;2.50;;;1.20;;
16800;SDS011;8518;53.236;10.384;2023-08-17T07:40:43;1.97;;;1.10;;
16800;SDS011;8518;53.236;10.384;2023-08-17T07:43:09;3.20;;;1.40;;
16800;SDS011;8518;53.236;10.384;2023-08-17T07:45:36;1.93;;;1.30;;
16800;SDS011;8518;53.236;10.384;2023-08-17T07:48:02;3.67;;;1.63;;
16800;SDS011;8518;53.236;10.384;2023-08-17T07:50:27;3.23;;;1.80;;
16800;SDS011;8518;53.236;10.384;2023-08-17T07:52:53;1.63;;;1.00;;
16800;SDS011;8518;53.236;10.384;2023-08-17T07:55:18;1.57;;;1.40;;
16800;SDS011;8518;53.236;10.384;2023-08-17T07:57:47;3.50;;;1.90;;
16800;SDS011;8518;53.236;10.384;2023-08-17T08:00:13;2.87;;;1.67;;
16800;SDS011;8518;53.236;10.384;2023-08-17T08:02:39;3.03;;;1.53;;
16800;SDS011;8518;53.236;10.384;2023-08-17T08:05:04;4.80;;;1.60;;
16800;SDS011;8518;53.236;10.384;2023-08-17T08:11:06;2.23;;;1.50;;
16800;SDS011;8518;53.236;10.384;2023-08-17T08:13:32;1.80;;;1.50;;
16800;SDS011;8518;53.236;10.384;2023-08-17T08:19:19;3.47;;;1.50;;
16800;SDS011;8518;53.236;10.384;2023-08-17T08:21:45;2.67;;;1.40;;
16800;SDS011;8518;53.236;10.384;2023-08-17T08:24:11;2.77;;;1.50;;
16800;SDS011;8518;53.236;10.384;2023-08-17T08:29:58;2.40;;;1.37;;
16800;SDS011;8518;53.236;10.384;2023-08-17T08:32:24;1.33;;;1.23;;
16800;SDS011;8518;53.236;10.384;2023-08-17T08:34:49;2.27;;;1.33;;
16800;SDS011;8518;53.236;10.384;2023-08-17T08:40:37;2.17;;;1.40;;
16800;SDS011;8518;53.236;10.384;2023-08-17T08:43:05;1.70;;;1.30;;
16800;SDS011;8518;53.236;10.384;2023-08-17T08:45:35;3.77;;;1.30;;
16800;SDS011;8518;53.236;10.384;2023-08-17T08:48:02;3.53;;;1.47;;
16800;SDS011;8518;53.236;10.384;2023-08-17T08:50:29;2.53;;;1.37;;
16800;SDS011;8518;53.236;10.384;2023-08-17T08:53:00;3.20;;;1.40;;
16800;SDS011;8518;53.236;10.384;2023-08-17T08:55:30;1.63;;;1.17;;
16800;SDS011;8518;53.236;10.384;2023-08-17T08:57:59;1.90;;;1.40;;
16800;SDS011;8518;53.236;10.384;2023-08-17T09:00:26;2.10;;;1.40;;
16800;SDS011;8518;53.236;10.384;2023-08-17T09:02:52;2.57;;;1.77;;
16800;SDS011;8518;53.236;10.384;2023-08-17T09:05:18;2.73;;;1.50;;
16800;SDS011;8518;53.236;10.384;2023-08-17T09:07:44;1.80;;;1.40;;
16800;SDS011;8518;53.236;10.384;2023-08-17T09:10:13;3.38;;;1.50;;
16800;SDS011;8518;53.236;10.384;2023-08-17T09:12:41;3.37;;;1.67;;
16800;SDS011;8518;53.236;10.384;2023-08-17T09:15:07;4.10;;;1.60;;
16800;SDS011;8518;53.236;10.384;2023-08-17T09:20:55;1.83;;;1.37;;
16800;SDS011;8518;53.236;10.384;2023-08-17T09:23:21;1.60;;;1.50;;
16800;SDS011;8518;53.236;10.384;2023-08-17T09:29:18;2.92;;;1.50;;
16800;SDS011;8518;53.236;10.384;2023-08-17T09:31:45;1.60;;;1.43;;
16800;SDS011;8518;53.236;10.384;2023-08-17T09:34:11;3.03;;;1.53;;
16800;SDS011;8518;53.236;10.384;2023-08-17T09:40:01;3.57;;;1.70;;
16800;SDS011;8518;53.236;10.384;2023-08-17T09:42:28;2.50;;;1.50;;
16800;SDS011;8518;53.236;10.384;2023-08-17T09:44:53;2.20;;;1.50;;
16800;SDS011;8518;53.236;10.384;2023-08-17T09:50:42;2.00;;;1.40;;
16800;SDS011;8518;53.236;10.384;2023-08-17T09:53:16;2.20;;;1.40;;
16800;SDS011;8518;53.236;10.384;2023-08-17T09:59:04;2.13;;;1.30;;
16800;SDS011;8518;53.236;10.384;2023-08-17T10:01:30;2.63;;;1.30;;
16800;SDS011;8518;53.236;10.384;2023-08-17T10:03:56;2.60;;;1.40;;
16800;SDS011;8518;53.236;10.384;2023-08-17T10:09:45;2.97;;;1.60;;
16800;SDS011;8518;53.236;10.384;2023-08-17T10:12:18;1.97;;;1.40;;
16800;SDS011;8518;53.236;10.384;2023-08-17T10:14:45;3.03;;;1.33;;
16800;SDS011;8518;53.236;10.384;2023-08-17T10:20:37;1.90;;;1.30;;
16800;SDS011;8518;53.236;10.384;2023-08-17T10:23:14;2.97;;;1.50;;
16800;SDS011;8518;53.236;10.384;2023-08-17T10:29:03;2.63;;;1.60;;
16800;SDS011;8518;53.236;10.384;2023-08-17T10:34:51;2.80;;;1.27;;
16800;SDS011;8518;53.236;10.384;2023-08-17T10:40:41;2.07;;;1.30;;
16800;SDS011;8518;53.236;10.384;2023-08-17T10:43:07;3.13;;;1.53;;
16800;SDS011;8518;53.236;10.384;2023-08-17T10:45:33;5.07;;;1.80;;
16800;SDS011;8518;53.236;10.384;2023-08-17T10:50:33;2.73;;;1.40;;
16800;SDS011;8518;53.236;10.384;2023-08-17T10:53:11;1.63;;;1.40;;
16800;SDS011;8518;53.236;10.384;2023-08-17T10:59:00;1.47;;;1.10;;
16800;SDS011;8518;53.236;10.384;2023-08-17T11:01:33;3.20;;;1.40;;
16800;SDS011;8518;53.236;10.384;2023-08-17T11:04:15;2.03;;;1.20;;
16800;SDS011;8518;53.236;10.384;2023-08-17T11:10:11;3.33;;;1.53;;
16800;SDS011;8518;53.236;10.384;2023-08-17T11:16:00;2.37;;;1.20;;
16800;SDS011;8518;53.236;10.384;2023-08-17T11:18:27;3.47;;;1.20;;
16800;SDS011;8518;53.236;10.384;2023-08-17T11:20:53;1.33;;;1.07;;
16800;SDS011;8518;53.236;10.384;2023-08-17T11:23:19;2.13;;;1.33;;
16800;SDS011;8518;53.236;10.384;2023-08-17T11:29:07;1.27;;;1.00;;
16800;SDS011;8518;53.236;10.384;2023-08-17T11:34:55;1.33;;;1.23;;
16800;SDS011;8518;53.236;10.384;2023-08-17T11:40:42;1.23;;;1.13;;
16800;SDS011;8518;53.236;10.384;2023-08-17T11:43:09;1.57;;;1.23;;
16800;SDS011;8518;53.236;10.384;2023-08-17T11:45:35;1.63;;;1.43;;
16800;SDS011;8518;53.236;10.384;2023-08-17T11:48:01;2.40;;;1.20;;
16800;SDS011;8518;53.236;10.384;2023-08-17T11:50:28;4.83;;;1.20;;
16800;SDS011;8518;53.236;10.384;2023-08-17T11:53:01;1.83;;;1.20;;
16800;SDS011;8518;53.236;10.384;2023-08-17T11:55:27;2.47;;;1.60;;
16800;SDS011;8518;53.236;10.384;2023-08-17T11:57:53;1.83;;;1.13;;
16800;SDS011;8518;53.236;10.384;2023-08-17T12:00:19;1.50;;;1.13;;
16800;SDS011;8518;53.236;10.384;2023-08-17T12:02:49;1.90;;;1.23;;
16800;SDS011;8518;53.236;10.384;2023-08-17T12:05:19;1.40;;;1.27;;
16800;SDS011;8518;53.236;10.384;2023-08-17T12:07:55;2.20;;;1.40;;
16800;SDS011;8518;53.236;10.384;2023-08-17T12:10:32;3.17;;;1.50;;
16800;SDS011;8518;53.236;10.384;2023-08-17T12:13:02;1.95;;;1.50;;
16800;SDS011;8518;53.236;10.384;2023-08-17T12:15:34;2.65;;;1.25;;
16800;SDS011;8518;53.236;10.384;2023-08-17T12:18:01;2.67;;;2.00;;
16800;SDS011;8518;53.236;10.384;2023-08-17T12:20:28;2.20;;;1.50;;
16800;SDS011;8518;53.236;10.384;2023-08-17T12:22:56;1.50;;;1.40;;
16800;SDS011;8518;53.236;10.384;2023-08-17T12:25:26;2.25;;;1.50;;
16800;SDS011;8518;53.236;10.384;2023-08-17T12:27:52;1.92;;;1.45;;
16800;SDS011;8518;53.236;10.384;2023-08-17T12:30:25;1.48;;;1.23;;
16800;SDS011;8518;53.236;10.384;2023-08-17T12:32:56;1.80;;;1.30;;
16800;SDS011;8518;53.236;10.384;2023-08-17T12:35:22;2.33;;;1.42;;
16800;SDS011;8518;53.236;10.384;2023-08-17T12:37:49;2.65;;;1.33;;
16800;SDS011;8518;53.236;10.384;2023-08-17T12:40:18;1.70;;;1.40;;
16800;SDS011;8518;53.236;10.384;2023-08-17T12:42:43;1.42;;;1.25;;
16800;SDS011;8518;53.236;10.384;2023-08-17T12:45:09;1.63;;;1.27;;
16800;SDS011;8518;53.236;10.384;2023-08-17T12:50:57;2.00;;;1.55;;
16800;SDS011;8518;53.236;10.384;2023-08-17T12:53:22;4.43;;;1.52;;
16800;SDS011;8518;53.236;10.384;2023-08-17T12:59:10;2.60;;;1.40;;
16800;SDS011;8518;53.236;10.384;2023-08-17T13:01:38;2.65;;;1.50;;
16800;SDS011;8518;53.236;10.384;2023-08-17T13:04:04;2.72;;;1.52;;
16800;SDS011;8518;53.236;10.384;2023-08-17T13:09:53;2.50;;;1.60;;
16800;SDS011;8518;53.236;10.384;2023-08-17T13:12:18;1.75;;;1.38;;
16800;SDS011;8518;53.236;10.384;2023-08-17T13:14:44;1.55;;;1.27;;
16800;SDS011;8518;53.236;10.384;2023-08-17T13:20:32;1.48;;;1.35;;
16800;SDS011;8518;53.236;10.384;2023-08-17T13:26:21;2.33;;;1.23;;
16800;SDS011;8518;53.236;10.384;2023-08-17T13:28:47;1.50;;;0.98;;
16800;SDS011;8518;53.236;10.384;2023-08-17T13:31:13;1.77;;;1.20;;
16800;SDS011;8518;53.236;10.384;2023-08-17T13:33:39;2.50;;;1.20;;
16800;SDS011;8518;53.236;10.384;2023-08-17T13:39:27;1.63;;;1.43;;
16800;SDS011;8518;53.236;10.384;2023-08-17T13:41:52;1.30;;;1.20;;
16800;SDS011;8518;53.236;10.384;2023-08-17T13:44:18;2.03;;;1.40;;
16800;SDS011;8518;53.236;10.384;2023-08-17T13:50:12;3.90;;;1.30;;
16800;SDS011;8518;53.236;10.384;2023-08-17T13:52:40;1.40;;;1.13;;
16800;SDS011;8518;53.236;10.384;2023-08-17T13:55:06;2.70;;;1.40;;
16800;SDS011;8518;53.236;10.384;2023-08-17T14:00:54;2.33;;;1.53;;
16800;SDS011;8518;53.236;10.384;2023-08-17T14:03:20;3.65;;;1.70;;
16800;SDS011;8518;53.236;10.384;2023-08-17T14:09:07;3.40;;;1.53;;
16800;SDS011;8518;53.236;10.384;2023-08-17T14:11:33;2.60;;;1.90;;
16800;SDS011;8518;53.236;10.384;2023-08-17T14:13:59;2.90;;;1.70;;
16800;SDS011;8518;53.236;10.384;2023-08-17T14:19:46;2.53;;;1.67;;
16800;SDS011;8518;53.236;10.384;2023-08-17T14:22:12;3.70;;;1.50;;
16800;SDS011;8518;53.236;10.384;2023-08-17T14:24:38;2.33;;;1.20;;
16800;SDS011;8518;53.236;10.384;2023-08-17T14:30:25;3.42;;;1.40;;
16800;SDS011;8518;53.236;10.384;2023-08-17T14:32:52;2.37;;;1.30;;
16800;SDS011;8518;53.236;10.384;2023-08-17T14:35:17;2.53;;;1.33;;
16800;SDS011;8518;53.236;10.384;2023-08-17T14:37:43;2.08;;;1.35;;
16800;SDS011;8518;53.236;10.384;2023-08-17T14:40:09;2.75;;;1.30;;
16800;SDS011;8518;53.236;10.384;2023-08-17T14:42:35;2.30;;;1.30;;
16800;SDS011;8518;53.236;10.384;2023-08-17T14:45:02;1.73;;;1.17;;
16800;SDS011;8518;53.236;10.384;2023-08-17T14:50:49;3.17;;;1.27;;
16800;SDS011;8518;53.236;10.384;2023-08-17T14:53:15;1.88;;;1.40;;
16800;SDS011;8518;53.236;10.384;2023-08-17T14:59:03;2.78;;;1.35;;
16800;SDS011;8518;53.236;10.384;2023-08-17T15:04:51;1.48;;;1.30;;
16800;SDS011;8518;53.236;10.384;2023-08-17T15:10:38;3.47;;;1.33;;
16800;SDS011;8518;53.236;10.384;2023-08-17T15:13:04;1.83;;;1.25;;
16800;SDS011;8518;53.236;10.384;2023-08-17T15:15:30;2.03;;;1.40;;
16800;SDS011;8518;53.236;10.384;2023-08-17T15:17:55;1.60;;;1.17;;
16800;SDS011;8518;53.236;10.384;2023-08-17T15:20:21;4.07;;;1.35;;
16800;SDS011;8518;53.236;10.384;2023-08-17T15:22:47;2.65;;;1.50;;
16800;SDS011;8518;53.236;10.384;2023-08-17T15:25:12;2.42;;;1.30;;
16800;SDS011;8518;53.236;10.384;2023-08-17T15:27:38;3.13;;;1.58;;
16800;SDS011;8518;53.236;10.384;2023-08-17T15:30:04;2.80;;;1.58;;
16800;SDS011;8518;53.236;10.384;2023-08-17T15:35:30;2.55;;;1.55;;
16800;SDS011;8518;53.236;10.384;2023-08-17T15:37:56;3.45;;;1.55;;
16800;SDS011;8518;53.236;10.384;2023-08-17T15:40:22;3.13;;;1.58;;
16800;SDS011;8518;53.236;10.384;2023-08-17T15:42:48;2.42;;;1.60;;
16800;SDS011;8518;53.236;10.384;2023-08-17T15:45:13;4.97;;;1.90;;
16800;SDS011;8518;53.236;10.384;2023-08-17T15:47:42;2.42;;;1.40;;
16800;SDS011;8518;53.236;10.384;2023-08-17T15:50:08;2.57;;;1.47;;
16800;SDS011;8518;53.236;10.384;2023-08-17T15:52:33;2.60;;;1.50;;
16800;SDS011;8518;53.236;10.384;2023-08-17T15:54:59;3.45;;;1.70;;
16800;SDS011;8518;53.236;10.384;2023-08-17T16:00:48;2.80;;;1.40;;
16800;SDS011;8518;53.236;10.384;2023-08-17T16:06:38;4.50;;;1.70;;
16800;SDS011;8518;53.236;10.384;2023-08-17T16:09:08;2.97;;;1.55;;
16800;SDS011;8518;53.236;10.384;2023-08-17T16:11:34;2.60;;;1.42;;
16800;SDS011;8518;53.236;10.384;2023-08-17T16:14:00;1.60;;;1.50;;
16800;SDS011;8518;53.236;10.384;2023-08-17T16:19:48;2.42;;;1.83;;
16800;SDS011;8518;53.236;10.384;2023-08-17T16:22:14;4.30;;;1.90;;
16800;SDS011;8518;53.236;10.384;2023-08-17T16:28:04;3.88;;;1.92;;
16800;SDS011;8518;53.236;10.384;2023-08-17T16:30:30;2.25;;;2.03;;
16800;SDS011;8518;53.236;10.384;2023-08-17T16:32:56;4.10;;;2.10;;
16800;SDS011;8518;53.236;10.384;2023-08-17T16:35:21;3.08;;;2.10;;
16800;SDS011;8518;53.236;10.384;2023-08-17T16:37:47;4.70;;;2.10;;
16800;SDS011;8518;53.236;10.384;2023-08-17T16:40:13;6.13;;;2.43;;
16800;SDS011;8518;53.236;10.384;2023-08-17T16:42:38;3.83;;;2.10;;
16800;SDS011;8518;53.236;10.384;2023-08-17T16:45:04;2.67;;;2.20;;
16800;SDS011;8518;53.236;10.384;2023-08-17T16:50:52;4.43;;;2.13;;
16800;SDS011;8518;53.236;10.384;2023-08-17T16:53:23;4.10;;;2.40;;
16800;SDS011;8518;53.236;10.384;2023-08-17T16:59:11;3.23;;;2.13;;
16800;SDS011;8518;53.236;10.384;2023-08-17T17:01:37;2.90;;;2.28;;
16800;SDS011;8518;53.236;10.384;2023-08-17T17:04:02;4.20;;;2.40;;
16800;SDS011;8518;53.236;10.384;2023-08-17T17:09:51;4.32;;;2.30;;
16800;SDS011;8518;53.236;10.384;2023-08-17T17:12:17;5.13;;;1.90;;
16800;SDS011;8518;53.236;10.384;2023-08-17T17:14:43;3.53;;;2.23;;
16800;SDS011;8518;53.236;10.384;2023-08-17T17:20:30;4.47;;;1.90;;
16800;SDS011;8518;53.236;10.384;2023-08-17T17:22:58;3.83;;;1.98;;
16800;SDS011;8518;53.236;10.384;2023-08-17T17:25:24;6.23;;;2.10;;
16800;SDS011;8518;53.236;10.384;2023-08-17T17:27:49;3.42;;;2.17;;
16800;SDS011;8518;53.236;10.384;2023-08-17T17:30:15;5.15;;;2.00;;
16800;SDS011;8518;53.236;10.384;2023-08-17T17:32:41;3.92;;;1.98;;
16800;SDS011;8518;53.236;10.384;2023-08-17T17:35:06;3.10;;;1.80;;
16800;SDS011;8518;53.236;10.384;2023-08-17T17:40:55;4.60;;;2.10;;
16800;SDS011;8518;53.236;10.384;2023-08-17T17:43:21;4.28;;;1.90;;
16800;SDS011;8518;53.236;10.384;2023-08-17T17:49:09;5.65;;;2.33;;
16800;SDS011;8518;53.236;10.384;2023-08-17T17:51:35;5.80;;;2.10;;
16800;SDS011;8518;53.236;10.384;2023-08-17T17:54:00;2.47;;;1.63;;
16800;SDS011;8518;53.236;10.384;2023-08-17T17:59:48;3.07;;;2.00;;
16800;SDS011;8518;53.236;10.384;2023-08-17T18:02:15;4.70;;;1.80;;
16800;SDS011;8518;53.236;10.384;2023-08-17T18:04:41;4.53;;;2.20;;
16800;SDS011;8518;53.236;10.384;2023-08-17T18:10:29;4.85;;;2.00;;
16800;SDS011;8518;53.236;10.384;2023-08-17T18:12:54;5.05;;;1.83;;
16800;SDS011;8518;53.236;10.384;2023-08-17T18:15:20;3.80;;;1.85;;
16800;SDS011;8518;53.236;10.384;2023-08-17T18:17:45;4.15;;;1.83;;
16800;SDS011;8518;53.236;10.384;2023-08-17T18:20:11;5.75;;;2.45;;
16800;SDS011;8518;53.236;10.384;2023-08-17T18:22:41;6.00;;;1.83;;
16800;SDS011;8518;53.236;10.384;2023-08-17T18:25:07;3.17;;;1.90;;
16800;SDS011;8518;53.236;10.384;2023-08-17T18:30:55;5.57;;;1.58;;
16800;SDS011;8518;53.236;10.384;2023-08-17T18:33:22;4.55;;;2.05;;
16800;SDS011;8518;53.236;10.384;2023-08-17T18:39:11;2.75;;;1.52;;
16800;SDS011;8518;53.236;10.384;2023-08-17T18:41:37;5.82;;;2.10;;
16800;SDS011;8518;53.236;10.384;2023-08-17T18:44:02;2.83;;;1.70;;
16800;SDS011;8518;53.236;10.384;2023-08-17T18:49:50;6.03;;;1.95;;
16800;SDS011;8518;53.236;10.384;2023-08-17T18:52:19;4.87;;;2.17;;
16800;SDS011;8518;53.236;10.384;2023-08-17T18:54:57;3.40;;;1.83;;
16800;SDS011;8518;53.236;10.384;2023-08-17T19:00:46;3.60;;;1.83;;
16800;SDS011;8518;53.236;10.384;2023-08-17T19:03:11;2.58;;;2.10;;
16800;SDS011;8518;53.236;10.384;2023-08-17T19:05:37;3.25;;;1.85;;
16800;SDS011;8518;53.236;10.384;2023-08-17T19:08:04;2.47;;;1.85;;
16800;SDS011;8518;53.236;10.384;2023-08-17T19:10:30;2.87;;;2.00;;
16800;SDS011;8518;53.236;10.384;2023-08-17T19:12:55;2.05;;;1.88;;
16800;SDS011;8518;53.236;10.384;2023-08-17T19:15:21;2.90;;;1.80;;
16800;SDS011;8518;53.236;10.384;2023-08-17T19:17:47;3.35;;;1.83;;
16800;SDS011;8518;53.236;10.384;2023-08-17T19:20:12;2.20;;;1.70;;
16800;SDS011;8518;53.236;10.384;2023-08-17T19:22:38;4.60;;;2.15;;
16800;SDS011;8518;53.236;10.384;2023-08-17T19:25:04;3.90;;;1.87;;
16800;SDS011;8518;53.236;10.384;2023-08-17T19:30:52;6.95;;;2.05;;
16800;SDS011;8518;53.236;10.384;2023-08-17T19:36:39;5.27;;;2.00;;
16800;SDS011;8518;53.236;10.384;2023-08-17T19:39:09;4.30;;;2.17;;
16800;SDS011;8518;53.236;10.384;2023-08-17T19:41:36;2.97;;;1.50;;
16800;SDS011;8518;53.236;10.384;2023-08-17T19:44:02;3.08;;;2.03;;
16800;SDS011;8518;53.236;10.384;2023-08-17T19:49:49;6.55;;;2.20;;
16800;SDS011;8518;53.236;10.384;2023-08-17T19:52:15;1.80;;;1.60;;
16800;SDS011;8518;53.236;10.384;2023-08-17T19:54:41;6.95;;;2.08;;
16800;SDS011;8518;53.236;10.384;2023-08-17T20:00:34;3.43;;;1.70;;
16800;SDS011;8518;53.236;10.384;2023-08-17T20:02:59;4.03;;;1.93;;
16800;SDS011;8518;53.236;10.384;2023-08-17T20:05:25;2.78;;;1.70;;